Time;durP1;ratioP1;P1;durP2;ratioP2;P2;SDS_P1;SDS_P2;PMS_P1;PMS_P2;Temp;Humidity;BMP_temperature;BMP_pressure;BME280_temperature;BME280_humidity;BME280_pressure;Samples;Min_cycle;Max_cycle;Signal;HPM_P1;HPM_P2
2021/11/09 00:00:31;;;;;;;10.80;2.70;;;;;;;23.44;44.29;101460.25;4956704;29;20047;-73
2021/11/09 00:02:58;;;;;;;6.05;2.25;;;;;;;23.58;43.88;101454.81;4956878;29;20031;-74
2021/11/09 00:05:26;;;;;;;9.43;2.47;;;;;;;23.42;44.33;101468.19;4956752;29;20039;-72
2021/11/09 00:08:01;;;;;;;8.10;3.20;;;;;;;23.39;44.70;101460.59;4956764;29;20086;-72
2021/11/09 00:10:28;;;;;;;8.98;2.55;;;;;;;23.57;43.99;101464.34;4956758;29;20046;-72
2021/11/09 00:13:00;;;;;;;7.97;3.00;;;;;;;23.55;44.04;101466.72;4956958;28;20426;-72
2021/11/09 00:15:25;;;;;;;10.43;2.70;;;;;;;23.47;44.06;101468.66;4956704;29;20036;-71
2021/11/09 00:17:54;;;;;;;10.13;3.45;;;;;;;23.56;43.75;101462.75;4956078;28;20038;-71
2021/11/09 00:20:22;;;;;;;9.07;2.60;;;;;;;23.52;43.78;101468.31;4956554;28;20023;-72
2021/11/09 00:22:48;;;;;;;11.05;3.50;;;;;;;23.48;44.14;101466.66;4956805;29;20566;-72
2021/11/09 00:25:16;;;;;;;10.68;2.70;;;;;;;23.54;43.86;101465.94;4956383;28;20031;-72
2021/11/09 00:27:42;;;;;;;11.32;2.90;;;;;;;23.60;43.84;101462.78;4956426;28;20511;-72
2021/11/09 00:30:12;;;;;;;12.52;3.20;;;;;;;23.61;44.10;101468.00;4956431;29;20035;-72
2021/11/09 00:32:38;;;;;;;8.75;2.38;;;;;;;23.64;44.10;101470.03;4956443;29;20031;-71
2021/11/09 00:35:07;;;;;;;9.40;2.53;;;;;;;23.60;43.94;101474.78;4956330;28;20027;-72
2021/11/09 00:37:33;;;;;;;11.05;3.08;;;;;;;23.55;44.27;101475.09;4956568;28;20024;-72
2021/11/09 00:39:59;;;;;;;5.88;2.33;;;;;;;23.54;44.08;101465.13;4956438;29;20024;-71
2021/11/09 00:42:24;;;;;;;11.45;3.33;;;;;;;23.61;43.92;101470.00;4956143;29;20477;-72
2021/11/09 00:44:50;;;;;;;15.90;3.60;;;;;;;23.60;43.97;101473.94;4956153;29;20031;-72
2021/11/09 00:47:16;;;;;;;16.20;3.95;;;;;;;23.58;43.96;101471.56;4956280;29;20033;-72
2021/11/09 00:49:41;;;;;;;8.75;2.72;;;;;;;23.49;44.08;101469.06;4956034;29;20082;-72
2021/11/09 00:52:07;;;;;;;11.23;3.28;;;;;;;23.59;44.12;101466.78;4956032;29;20024;-72
2021/11/09 00:54:35;;;;;;;7.15;2.72;;;;;;;23.59;44.04;101466.78;4955913;29;20055;-72
2021/11/09 00:57:01;;;;;;;12.18;3.00;;;;;;;23.63;43.63;101462.84;4955848;29;20110;-72
2021/11/09 00:59:27;;;;;;;11.93;2.70;;;;;;;23.61;43.82;101459.66;4955652;29;20146;-72
2021/11/09 01:01:54;;;;;;;12.85;3.22;;;;;;;23.63;44.08;101459.25;4955785;29;20031;-72
2021/11/09 01:04:19;;;;;;;10.63;2.60;;;;;;;23.65;43.60;101457.69;4955682;29;20082;-71
2021/11/09 01:06:45;;;;;;;13.38;3.17;;;;;;;23.57;44.36;101457.97;4955694;29;20122;-71
2021/11/09 01:09:12;;;;;;;11.75;3.33;;;;;;;23.58;44.30;101456.78;4955599;29;20031;-72
2021/11/09 01:11:39;;;;;;;11.30;2.78;;;;;;;23.54;44.17;101454.78;4955896;29;20525;-72
2021/11/09 01:14:06;;;;;;;7.30;2.95;;;;;;;23.52;44.27;101453.56;4955543;29;20035;-72
2021/11/09 01:16:33;;;;;;;11.88;3.10;;;;;;;23.40;44.15;101456.63;4955825;29;20090;-71
2021/11/09 01:19:04;;;;;;;15.13;4.30;;;;;;;23.41;44.32;101459.03;4955478;29;20031;-71
2021/11/09 01:21:30;;;;;;;8.27;3.05;;;;;;;23.41;44.21;101456.22;4955428;29;20034;-72
2021/11/09 01:23:55;;;;;;;8.60;3.13;;;;;;;23.48;44.30;101461.88;4955601;28;20055;-72
2021/11/09 01:26:23;;;;;;;10.32;3.65;;;;;;;23.43;44.43;101448.31;4955320;29;20063;-72
2021/11/09 01:28:51;;;;;;;13.65;3.17;;;;;;;23.51;43.72;101446.38;4954782;28;20090;-72
2021/11/09 01:31:17;;;;;;;8.60;3.17;;;;;;;23.49;44.05;101451.53;4955305;29;20474;-76
2021/11/09 01:33:43;;;;;;;8.30;2.40;;;;;;;23.46;44.15;101446.72;4955537;29;20114;-71
2021/11/09 01:36:10;;;;;;;9.93;2.95;;;;;;;23.48;44.17;101453.50;4955093;28;20031;-72
2021/11/09 01:38:36;;;;;;;13.70;4.30;;;;;;;23.42;44.15;101443.09;4955103;29;20045;-72
2021/11/09 01:41:04;;;;;;;8.25;3.10;;;;;;;23.49;43.70;101449.53;4955296;29;20038;-72
2021/11/09 01:43:31;;;;;;;11.05;3.17;;;;;;;23.43;44.07;101442.72;4955073;29;20027;-72
2021/11/09 01:45:58;;;;;;;9.75;2.78;;;;;;;23.42;44.12;101443.09;4954906;29;20039;-71
2021/11/09 01:48:26;;;;;;;8.45;2.72;;;;;;;23.41;44.05;101433.91;4955011;29;20538;-71
2021/11/09 01:50:56;;;;;;;6.50;2.67;;;;;;;23.39;44.02;101427.13;4954827;28;20038;-71
2021/11/09 01:53:23;;;;;;;9.30;3.22;;;;;;;23.42;44.09;101423.56;4953535;29;20027;-71
2021/11/09 01:55:50;;;;;;;9.60;2.97;;;;;;;23.47;43.83;101428.81;4954718;29;20031;-71
2021/11/09 01:58:16;;;;;;;14.05;3.88;;;;;;;23.43;43.80;101425.19;4954914;28;20028;-71
2021/11/09 02:00:48;;;;;;;11.73;3.30;;;;;;;23.45;43.71;101425.59;4954579;29;20649;-72
2021/11/09 02:03:14;;;;;;;10.93;3.72;;;;;;;23.34;43.80;101430.25;4954673;29;20031;-72
2021/11/09 02:05:42;;;;;;;10.52;3.08;;;;;;;23.41;44.05;101425.56;4954542;29;20027;-71
2021/11/09 02:08:08;;;;;;;8.35;2.70;;;;;;;23.30;43.96;101426.66;4954519;29;20031;-71
2021/11/09 02:10:38;;;;;;;11.98;3.15;;;;;;;23.25;44.20;101425.81;4954693;29;20030;-71
2021/11/09 02:13:04;;;;;;;8.45;3.05;;;;;;;23.25;44.11;101431.38;4954793;29;20409;-71
2021/11/09 02:15:32;;;;;;;9.68;3.55;;;;;;;22.98;44.80;101421.56;4954823;29;20035;-71
2021/11/09 02:17:59;;;;;;;12.48;3.33;;;;;;;23.19;44.53;101415.38;4954452;29;20023;-71
2021/11/09 02:20:26;;;;;;;11.68;3.92;;;;;;;23.13;44.58;101412.16;4954766;29;20458;-72
2021/11/09 02:22:54;;;;;;;11.15;3.53;;;;;;;23.19;44.42;101412.59;4954723;29;20073;-73
2021/11/09 02:25:22;;;;;;;9.85;3.78;;;;;;;23.27;44.22;101403.09;4954294;29;20027;-71
2021/11/09 02:27:49;;;;;;;12.35;3.08;;;;;;;23.09;44.48;101399.34;4954456;29;20054;-72
2021/11/09 02:30:18;;;;;;;12.32;3.70;;;;;;;23.23;44.18;101405.06;4954536;29;20024;-71
2021/11/09 02:32:45;;;;;;;8.90;2.63;;;;;;;23.16;44.59;101402.22;4954505;29;20019;-72
2021/11/09 02:35:13;;;;;;;13.50;3.40;;;;;;;23.05;45.08;101407.69;4954425;28;20031;-71
2021/11/09 02:37:41;;;;;;;8.30;3.17;;;;;;;23.14;44.52;101407.38;4954635;29;20105;-71
2021/11/09 02:40:09;;;;;;;6.05;2.53;;;;;;;23.22;44.25;101409.84;4955919;28;20046;-72
2021/11/09 02:42:38;;;;;;;7.57;2.70;;;;;;;23.24;44.15;101406.69;4958383;29;20135;-72
2021/11/09 02:45:13;;;;;;;9.20;3.22;;;;;;;23.35;43.82;101407.59;4958476;29;20039;-71
2021/11/09 02:47:44;;;;;;;9.98;2.40;;;;;;;23.31;43.87;101403.97;4958562;29;20480;-72
2021/11/09 02:50:12;;;;;;;5.55;1.70;;;;;;;23.31;43.75;101405.94;4958380;29;20158;-76
2021/11/09 02:52:46;;;;;;;8.43;2.60;;;;;;;23.08;44.28;101392.97;4958355;28;20532;-72
2021/11/09 02:55:12;;;;;;;10.38;2.58;;;;;;;23.17;43.88;101401.03;4976924;28;20501;-75
2021/11/09 03:00:26;;;;;;;7.57;2.40;;;;;;;23.08;44.20;101400.53;4977216;28;20074;-71
2021/11/09 03:03:17;;;;;;;13.15;3.45;;;;;;;23.08;44.12;101389.41;4977291;28;20038;-71
2021/11/09 03:10:57;;;;;;;7.82;2.17;;;;;;;23.02;43.87;101386.16;4977199;28;20023;-72
2021/11/09 03:13:23;;;;;;;10.00;2.47;;;;;;;23.02;43.84;101388.13;4977278;28;20085;-72
2021/11/09 03:15:51;;;;;;;8.80;2.75;;;;;;;22.99;43.60;101389.72;4977120;28;20042;-72
2021/11/09 03:18:20;;;;;;;8.95;3.03;;;;;;;22.99;43.90;101389.72;4977216;28;20397;-71
2021/11/09 03:39:58;;;;;;;9.00;2.15;;;;;;;23.00;43.77;101384.94;4976841;28;20026;-71
2021/11/09 03:40:28;;;;;;;6.97;2.63;;;;;;;22.81;43.88;101388.66;4976721;28;20038;-75
2021/11/09 03:45:40;;;;;;;10.38;2.83;;;;;;;22.85;43.36;101384.78;4976722;28;20130;-73
2021/11/09 03:48:10;;;;;;;7.78;2.50;;;;;;;22.87;43.31;101385.19;4976394;28;20509;-71
2021/11/09 03:50:38;;;;;;;7.78;1.85;;;;;;;22.89;43.33;101382.00;4976430;28;20050;-71
2021/11/09 03:58:23;;;;;;;5.10;1.83;;;;;;;22.87;43.50;101378.81;4976355;28;20026;-71
2021/11/09 04:00:55;;;;;;;8.45;2.28;;;;;;;22.81;43.35;101377.53;4976008;28;20043;-72
2021/11/09 04:06:49;;;;;;;5.55;2.22;;;;;;;22.75;43.70;101370.69;4976140;28;20456;-71
2021/11/09 04:08:55;;;;;;;9.68;1.77;;;;;;;22.80;43.82;101371.16;4962479;28;20451;-71
2021/11/09 04:16:45;;;;;;;9.35;2.42;;;;;;;22.81;43.77;101383.09;4976310;28;20470;-72
2021/11/09 04:19:24;;;;;;;9.95;2.67;;;;;;;22.79;43.83;101377.09;4975923;28;20027;-71
2021/11/09 04:33:37;;;;;;;7.15;2.00;;;;;;;22.83;43.73;101380.75;4976030;28;20469;-72
2021/11/09 05:10:41;;;;;;;13.85;2.53;;;;;;;22.70;44.64;101394.94;4975289;28;20034;-71
2021/11/09 05:13:07;;;;;;;7.10;1.88;;;;;;;22.63;45.27;101383.69;4975113;28;20425;-72
2021/11/09 05:15:33;;;;;;;6.43;1.77;;;;;;;22.70;44.81;101383.78;4974805;28;20561;-71
2021/11/09 05:17:59;;;;;;;7.05;1.63;;;;;;;22.62;45.45;101384.88;4974820;28;20031;-71
2021/11/09 05:20:26;;;;;;;4.55;1.05;;;;;;;22.70;45.53;101394.13;4974825;28;20613;-72
2021/11/09 05:22:51;;;;;;;4.93;1.40;;;;;;;22.76;45.00;101386.25;4974658;28;20481;-71
2021/11/09 05:25:18;;;;;;;8.38;1.50;;;;;;;22.68;45.17;101388.94;4974883;28;20027;-71
2021/11/09 05:27:46;;;;;;;6.75;1.58;;;;;;;22.76;45.31;101380.66;4974698;28;20609;-72
2021/11/09 05:30:12;;;;;;;5.20;1.40;;;;;;;22.70;45.17;101385.78;4974616;28;20027;-72
2021/11/09 05:32:37;;;;;;;3.20;1.15;;;;;;;22.70;45.24;101381.00;4974561;28;20643;-71
2021/11/09 05:35:04;;;;;;;6.90;1.38;;;;;;;22.65;45.69;101386.91;4974450;28;20496;-71
2021/11/09 05:37:35;;;;;;;4.68;1.20;;;;;;;22.75;45.57;101395.75;4974467;28;20023;-71
2021/11/09 05:40:05;;;;;;;5.80;1.40;;;;;;;22.76;45.75;101391.81;4973980;28;20381;-72
2021/11/09 05:42:30;;;;;;;4.57;1.15;;;;;;;22.64;45.84;101382.50;4972947;28;20113;-71
2021/11/09 05:44:57;;;;;;;4.55;1.33;;;;;;;22.40;46.78;101391.38;4974317;28;20110;-72
2021/11/09 05:47:23;;;;;;;7.82;1.60;;;;;;;22.52;46.36;101388.34;4974504;28;20400;-71
2021/11/09 05:49:48;;;;;;;2.67;1.10;;;;;;;22.52;46.60;101382.78;4974526;28;20038;-71
2021/11/09 05:52:14;;;;;;;3.70;1.10;;;;;;;22.50;46.96;101387.09;4974502;28;20034;-70
2021/11/09 05:54:40;;;;;;;5.35;1.30;;;;;;;22.59;46.54;101388.41;4973924;28;20505;-71
2021/11/09 05:57:06;;;;;;;2.50;1.13;;;;;;;22.64;46.42;101399.22;4974007;28;20393;-71
2021/11/09 05:59:32;;;;;;;4.88;1.33;;;;;;;22.67;46.38;101401.25;4973765;28;20043;-71
2021/11/09 06:01:58;;;;;;;3.70;1.30;;;;;;;22.65;46.61;101395.25;4974062;28;20038;-71
2021/11/09 06:04:25;;;;;;;2.50;0.90;;;;;;;22.64;46.76;101399.22;4973953;28;20209;-71
2021/11/09 06:06:51;;;;;;;4.40;1.00;;;;;;;22.69;46.72;101404.47;4974206;28;20396;-70
2021/11/09 06:09:17;;;;;;;4.55;1.05;;;;;;;22.76;46.30;101391.81;4973851;28;20456;-71
2021/11/09 06:11:43;;;;;;;3.45;0.80;;;;;;;22.82;46.25;101398.63;4974138;28;20097;-71
2021/11/09 06:14:08;;;;;;;6.72;1.60;;;;;;;22.74;46.51;101389.38;4973503;28;20027;-72
2021/11/09 06:16:35;;;;;;;1.83;1.02;;;;;;;22.83;46.30;101387.13;4973868;28;20043;-72
2021/11/09 06:19:00;;;;;;;3.15;0.95;;;;;;;22.65;47.12;101398.03;4973867;28;20037;-71
2021/11/09 06:21:26;;;;;;;6.57;1.15;;;;;;;22.74;47.06;101394.16;4973785;28;20027;-71
2021/11/09 06:23:53;;;;;;;5.72;1.20;;;;;;;22.64;47.26;101392.84;4973761;28;20027;-70
2021/11/09 06:26:21;;;;;;;2.78;0.85;;;;;;;22.77;46.69;101393.41;4973611;28;20029;-71
2021/11/09 06:28:47;;;;;;;2.88;1.10;;;;;;;22.77;46.79;101385.06;4973902;28;20030;-71
2021/11/09 06:31:13;;;;;;;1.77;0.90;;;;;;;22.49;47.69;101405.78;4973700;28;20057;-71
2021/11/09 06:33:39;;;;;;;2.40;0.80;;;;;;;22.68;47.41;101410.41;4973676;28;20023;-70
2021/11/09 06:36:05;;;;;;;3.70;1.00;;;;;;;22.69;47.12;101409.25;4973783;28;20027;-70
2021/11/09 06:38:30;;;;;;;2.35;1.00;;;;;;;22.55;47.83;101406.28;4973608;28;20444;-70
2021/11/09 06:40:56;;;;;;;2.75;1.00;;;;;;;22.68;47.45;101408.44;4973799;28;20023;-72
2021/11/09 06:43:21;;;;;;;1.92;0.90;;;;;;;22.67;47.26;101406.00;4973679;28;20046;-71
2021/11/09 06:45:47;;;;;;;1.33;0.70;;;;;;;22.83;47.11;101403.03;4973323;28;20034;-71
2021/11/09 06:48:13;;;;;;;2.33;0.88;;;;;;;22.67;47.39;101403.22;4973530;28;20084;-72
2021/11/09 06:50:39;;;;;;;2.65;0.90;;;;;;;22.76;47.17;101411.31;4973501;28;20023;-71
2021/11/09 06:53:05;;;;;;;3.30;0.73;;;;;;;22.76;47.00;101414.09;4973736;28;20027;-72
2021/11/09 06:55:34;;;;;;;3.28;0.70;;;;;;;22.79;46.97;101411.34;4973394;28;20038;-70
2021/11/09 06:57:59;;;;;;;1.25;0.73;;;;;;;22.83;46.96;101403.03;4973780;28;20073;-75
2021/11/09 07:00:25;;;;;;;1.42;0.80;;;;;;;22.75;46.92;101412.47;4973300;28;20607;-71
2021/11/09 07:02:51;;;;;;;1.50;0.80;;;;;;;22.70;47.46;101425.56;4973469;28;20363;-70
2021/11/09 07:05:17;;;;;;;4.43;0.93;;;;;;;22.52;48.04;101429.28;4973166;28;20030;-71
2021/11/09 07:07:43;;;;;;;1.80;0.85;;;;;;;22.69;47.36;101426.75;4973286;28;20019;-72
2021/11/09 07:10:10;;;;;;;2.25;0.50;;;;;;;22.62;47.45;101432.22;4973406;28;20393;-73
2021/11/09 07:12:37;;;;;;;0.93;0.65;;;;;;;22.70;47.26;101427.56;4973262;28;20030;-72
2021/11/09 07:15:03;;;;;;;1.55;0.50;;;;;;;22.66;47.27;101435.84;4973203;28;20500;-73
2021/11/09 07:17:29;;;;;;;1.80;0.60;;;;;;;22.59;47.61;101434.94;4973455;28;20109;-71
2021/11/09 07:19:57;;;;;;;2.05;0.70;;;;;;;22.66;47.60;101437.84;4973287;28;20075;-69
2021/11/09 07:22:23;;;;;;;3.10;0.70;;;;;;;22.58;47.62;101445.28;4955953;28;20393;-76
2021/11/09 07:24:50;;;;;;;2.28;0.80;;;;;;;22.67;47.29;101456.16;4973286;28;20038;-74
2021/11/09 07:27:16;;;;;;;0.60;0.60;;;;;;;22.63;47.61;101452.53;4974901;28;20139;-69
2021/11/09 07:29:48;;;;;;;1.75;0.70;;;;;;;22.64;47.46;101449.34;4977150;28;20019;-77
2021/11/09 07:32:15;;;;;;;2.75;1.05;;;;;;;22.59;47.94;101441.31;4976836;28;20557;-70
2021/11/09 07:34:41;;;;;;;2.65;1.02;;;;;;;22.64;47.77;101443.00;4976963;28;20400;-70
2021/11/09 07:37:06;;;;;;;3.03;0.90;;;;;;;22.63;47.71;101447.75;4976949;28;20026;-70
2021/11/09 07:39:32;;;;;;;2.53;1.20;;;;;;;22.61;47.74;101452.91;4976728;28;20045;-70
2021/11/09 07:41:58;;;;;;;1.88;1.05;;;;;;;22.61;48.01;101447.34;4976806;28;20029;-70
2021/11/09 07:44:24;;;;;;;5.10;1.42;;;;;;;22.34;48.48;101454.91;4976579;28;20397;-70
2021/11/09 07:46:49;;;;;;;2.42;1.20;;;;;;;22.53;47.80;101448.44;4976402;28;20033;-71
2021/11/09 07:49:15;;;;;;;3.33;1.35;;;;;;;22.59;48.20;101458.03;4976808;28;20034;-71
2021/11/09 07:51:41;;;;;;;2.20;1.17;;;;;;;22.60;47.74;101468.03;4976402;28;20450;-70
2021/11/09 07:54:07;;;;;;;2.10;1.33;;;;;;;22.62;47.76;101478.78;4976600;28;20033;-71
2021/11/09 07:56:35;;;;;;;2.63;1.05;;;;;;;22.61;47.91;101480.75;4976305;28;20034;-71
2021/11/09 08:01:35;;;;;;;3.08;1.30;;;;;;;22.54;48.44;101477.88;4976127;28;20046;-71
2021/11/09 08:04:09;;;;;;;3.67;1.85;;;;;;;22.45;48.64;101471.78;4976215;28;20022;-71
2021/11/09 08:07:48;;;;;;;3.50;1.60;;;;;;;22.59;48.21;101482.31;4976127;28;20034;-70
2021/11/09 08:09:29;;;;;;;3.45;1.45;;;;;;;22.63;47.90;101483.97;4954834;28;20042;-73
2021/11/09 08:11:58;;;;;;;4.13;1.55;;;;;;;22.61;48.25;101503.03;4976273;28;20441;-72
2021/11/09 08:14:24;;;;;;;2.67;1.52;;;;;;;22.64;48.45;101507.84;4973037;28;20125;-71
2021/11/09 08:16:49;;;;;;;3.63;2.05;;;;;;;22.69;48.26;101503.94;4973634;28;20118;-73
2021/11/09 08:19:17;;;;;;;2.92;1.20;;;;;;;22.53;49.03;101504.13;4976042;28;20093;-71
2021/11/09 08:21:43;;;;;;;3.20;2.08;;;;;;;22.69;48.12;101501.97;4975782;28;20118;-71
2021/11/09 08:24:09;;;;;;;3.05;1.70;;;;;;;22.64;48.45;101512.63;4975797;28;20030;-71
2021/11/09 08:26:35;;;;;;;3.95;2.70;;;;;;;22.57;48.78;101513.31;4975628;28;20037;-71
2021/11/09 08:29:05;;;;;;;4.28;1.80;;;;;;;22.75;48.38;101512.75;4975609;28;20030;-71
2021/11/09 08:31:32;;;;;;;5.20;2.15;;;;;;;22.77;48.34;101521.56;4975513;28;20393;-72
2021/11/09 08:34:03;;;;;;;4.10;2.08;;;;;;;22.79;48.28;101522.78;4975086;28;20465;-74
2021/11/09 08:36:30;;;;;;;3.42;2.38;;;;;;;22.76;48.42;101531.91;4975474;28;20031;-70
2021/11/09 08:38:58;;;;;;;3.00;2.05;;;;;;;22.76;48.45;101525.53;4974773;28;20023;-71
2021/11/09 08:41:27;;;;;;;3.90;2.20;;;;;;;22.75;48.62;101529.47;4975190;28;20038;-71
2021/11/09 08:46:24;;;;;;;4.18;2.20;;;;;;;22.63;49.31;101530.50;4975205;28;20062;-71
2021/11/09 08:48:53;;;;;;;5.55;3.03;;;;;;;22.68;49.26;101536.56;4975721;28;20385;-71
2021/11/09 08:51:21;;;;;;;4.15;2.40;;;;;;;22.84;48.75;101532.81;4975367;28;20552;-78
2021/11/09 08:54:32;;;;;;;4.47;2.63;;;;;;;22.64;49.26;101549.63;4972347;28;20030;-78
2021/11/09 09:04:42;;;;;;;4.55;3.05;;;;;;;22.89;48.81;101557.56;4940618;28;20044;-70
2021/11/09 09:07:08;;;;;;;3.60;1.98;;;;;;;22.95;48.44;101568.00;4964491;28;20473;-72
2021/11/09 09:09:34;;;;;;;4.40;2.42;;;;;;;22.98;48.68;101569.25;4965167;28;20090;-71
2021/11/09 09:12:00;;;;;;;4.28;2.33;;;;;;;22.87;48.70;101576.66;4961010;28;20078;-69
2021/11/09 09:14:26;;;;;;;3.78;2.05;;;;;;;22.88;48.79;101581.03;4961825;28;20086;-77
2021/11/09 09:16:54;;;;;;;3.05;1.90;;;;;;;22.99;48.79;101579.22;4962260;28;20054;-72
2021/11/09 09:19:25;;;;;;;2.92;1.55;;;;;;;23.02;48.41;101583.22;4965052;28;20102;-71
2021/11/09 09:21:57;;;;;;;2.22;1.13;;;;;;;23.04;48.22;101586.44;4964129;28;20051;-70
2021/11/09 09:24:30;;;;;;;0.50;0.50;;;;;;;22.93;48.54;101584.31;4963348;28;20031;-71
2021/11/09 09:32:25;;;;;;;1.67;0.50;;;;;;;22.73;48.40;101582.78;4965100;28;20027;-71
2021/11/09 09:54:23;;;;;;;1.40;0.60;;;;;;;22.60;48.25;101589.78;4957857;28;20090;-70
2021/11/09 09:56:57;;;;;;;1.38;0.90;;;;;;;22.43;48.73;101591.88;4964205;28;20085;-69
2021/11/09 09:59:35;;;;;;;0.45;0.43;;;;;;;22.61;48.08;101594.97;4962118;28;20458;-74
2021/11/09 10:02:19;;;;;;;1.33;0.80;;;;;;;22.72;48.11;101592.31;4961702;28;20039;-70
2021/11/09 10:04:48;;;;;;;1.98;0.95;;;;;;;22.81;47.63;101601.22;4955107;29;20035;-70
2021/11/09 10:07:26;;;;;;;4.15;0.70;;;;;;;22.91;47.50;101597.03;4958191;28;20455;-78
2021/11/09 10:09:52;;;;;;;1.63;0.63;;;;;;;22.88;47.72;101600.53;4964339;28;20041;-71
2021/11/09 10:12:35;;;;;;;1.67;0.73;;;;;;;22.96;47.36;101605.03;4961812;28;20024;-71
2021/11/09 10:15:12;;;;;;;2.58;0.60;;;;;;;22.83;47.23;101614.78;4965407;28;20035;-72
2021/11/09 10:17:41;;;;;;;0.82;0.50;;;;;;;22.75;47.78;101611.09;4964463;28;20031;-77
2021/11/09 10:20:19;;;;;;;1.90;0.70;;;;;;;22.77;47.13;101605.94;4964332;28;20039;-72
2021/11/09 10:22:52;;;;;;;1.25;0.52;;;;;;;22.59;47.03;101616.78;4964321;28;20041;-71
2021/11/09 10:25:20;;;;;;;0.80;0.55;;;;;;;22.51;48.00;101619.84;4964403;28;20026;-71
2021/11/09 10:27:49;;;;;;;3.40;0.77;;;;;;;22.71;47.14;101627.75;4964497;28;20042;-70
2021/11/09 10:30:23;;;;;;;1.17;0.77;;;;;;;22.52;47.45;101638.97;4964316;28;20035;-72
2021/11/09 10:32:49;;;;;;;3.65;0.80;;;;;;;22.57;47.52;101641.44;4964128;28;20525;-71
2021/11/09 10:35:17;;;;;;;1.67;0.52;;;;;;;22.43;47.89;101635.63;4962758;28;20028;-73
2021/11/09 10:37:48;;;;;;;1.33;0.82;;;;;;;22.37;47.57;101635.16;4962892;28;20033;-71
2021/11/09 10:40:18;;;;;;;0.90;0.70;;;;;;;22.12;48.03;101640.25;4963991;28;20055;-71
2021/11/09 10:42:46;;;;;;;4.25;1.65;;;;;;;22.25;47.58;101640.09;4963991;28;20394;-72
2021/11/09 10:45:14;;;;;;;2.42;0.70;;;;;;;22.39;47.19;101635.59;4964051;28;20031;-72
2021/11/09 10:47:46;;;;;;;2.30;0.80;;;;;;;22.48;47.05;101640.88;4963042;28;20027;-82
2021/11/09 10:50:23;;;;;;;1.05;0.35;;;;;;;22.63;46.49;101644.72;4962437;28;20087;-77
2021/11/09 10:53:05;;;;;;;4.55;0.68;;;;;;;22.61;46.69;101647.88;4961952;28;20039;-71
2021/11/09 10:55:42;;;;;;;2.42;0.65;;;;;;;22.71;46.59;101632.50;4962015;28;20039;-72
2021/11/09 11:06:32;;;;;;;1.73;1.05;;;;;;;22.51;47.01;101648.50;4965363;28;20482;-71
2021/11/09 11:09:10;;;;;;;3.05;0.80;;;;;;;22.67;46.83;101646.41;4967597;28;20030;-72
2021/11/09 11:11:40;;;;;;;1.63;0.65;;;;;;;22.50;46.84;101651.66;4967575;28;20034;-73
2021/11/09 11:14:05;;;;;;;1.55;1.10;;;;;;;22.60;46.79;101640.72;4967539;28;20035;-78
2021/11/09 11:16:42;;;;;;;3.88;0.65;;;;;;;22.63;45.90;101648.31;4965529;28;20508;-79
2021/11/09 11:19:17;;;;;;;0.75;0.57;;;;;;;22.48;46.62;101640.09;4965432;28;20513;-77
2021/11/09 11:21:43;;;;;;;3.45;0.90;;;;;;;22.69;45.92;101649.59;4966616;28;20536;-73
2021/11/09 11:24:13;;;;;;;2.72;0.88;;;;;;;22.74;45.86;101640.09;4967491;28;20026;-72
2021/11/09 11:26:39;;;;;;;2.88;1.08;;;;;;;22.64;46.17;101655.47;4966197;28;20044;-72
2021/11/09 11:29:06;;;;;;;8.60;2.03;;;;;;;22.81;45.83;101653.34;4965940;28;20082;-72
2021/11/09 11:31:32;;;;;;;7.03;1.73;;;;;;;23.01;45.38;101654.09;4967189;28;20026;-71
2021/11/09 11:33:58;;;;;;;11.30;1.92;;;;;;;23.21;45.17;101659.16;4966162;28;20028;-71
2021/11/09 11:36:24;;;;;;;7.97;1.60;;;;;;;23.32;45.25;101664.88;4965806;28;20023;-78
2021/11/09 11:38:54;;;;;;;7.88;1.15;;;;;;;23.10;45.67;101671.31;4967050;28;20023;-77
2021/11/09 11:41:22;;;;;;;4.15;0.77;;;;;;;23.24;45.52;101665.97;4966116;28;20446;-78
2021/11/09 11:43:48;;;;;;;1.67;0.50;;;;;;;23.26;44.70;101672.75;4964958;28;20063;-73
2021/11/09 11:46:36;;;;;;;2.55;0.70;;;;;;;22.95;44.75;101668.31;4965121;28;20055;-71
2021/11/09 11:49:03;;;;;;;6.35;0.90;;;;;;;23.32;43.97;101676.03;4966859;28;20062;-79
2021/11/09 11:51:38;;;;;;;1.88;0.80;;;;;;;23.17;44.38;101668.66;4966944;28;20019;-72
2021/11/09 11:54:07;;;;;;;7.78;1.40;;;;;;;23.19;43.95;101672.66;4959648;28;20082;-78
2021/11/09 11:56:38;;;;;;;4.22;0.95;;;;;;;23.12;43.97;101671.75;4962149;28;20467;-73
2021/11/09 11:59:05;;;;;;;2.67;0.80;;;;;;;23.20;43.67;101668.72;4958270;28;20043;-76
2021/11/09 12:01:44;;;;;;;2.75;1.27;;;;;;;22.80;43.49;101657.31;4958212;28;20078;-79
2021/11/09 12:04:11;;;;;;;3.93;1.40;;;;;;;22.46;44.34;101656.38;4972356;28;20039;-69
2021/11/09 12:06:52;;;;;;;5.90;1.40;;;;;;;22.44;43.62;101653.94;4966835;28;20281;-74
2021/11/09 12:09:33;;;;;;;7.43;1.30;;;;;;;22.34;43.29;101657.34;4967204;28;20035;-75
2021/11/09 12:12:19;;;;;;;2.83;1.10;;;;;;;22.72;42.63;101659.19;4956529;28;20086;-69
2021/11/09 12:14:47;;;;;;;9.95;1.77;;;;;;;22.62;43.27;101651.47;4956598;29;20059;-70
2021/11/09 12:17:28;;;;;;;12.75;2.22;;;;;;;23.01;42.48;101660.47;4956085;28;20406;-70
2021/11/09 12:19:55;;;;;;;19.55;3.78;;;;;;;23.12;42.54;101671.75;4956679;29;20031;-68
2021/11/09 12:22:37;;;;;;;20.40;3.60;;;;;;;23.34;42.31;101675.66;4956659;29;20031;-68
2021/11/09 12:25:05;;;;;;;7.38;1.92;;;;;;;23.50;41.96;101676.25;4956591;29;20078;-69
2021/11/09 12:27:48;;;;;;;8.18;2.00;;;;;;;23.63;41.54;101674.88;4956528;29;20031;-69
2021/11/09 12:30:36;;;;;;;22.17;3.80;;;;;;;23.84;41.76;101676.31;4956487;29;20122;-68
2021/11/09 12:33:08;;;;;;;8.20;2.08;;;;;;;23.88;41.61;101665.97;4956715;29;20042;-68
2021/11/09 12:35:35;;;;;;;5.65;1.58;;;;;;;24.16;41.14;101660.69;4955363;29;20027;-69
2021/11/09 12:38:04;;;;;;;3.72;1.00;;;;;;;24.02;41.13;101650.19;4954638;29;20028;-76
2021/11/09 12:40:32;;;;;;;7.70;1.60;;;;;;;23.91;40.96;101657.66;4954735;29;20023;-70
2021/11/09 12:43:03;;;;;;;9.57;2.30;;;;;;;23.64;40.81;101662.53;4955435;29;20082;-69
2021/11/09 12:45:30;;;;;;;5.00;1.42;;;;;;;23.59;41.12;101665.63;4955655;29;20533;-69
2021/11/09 12:48:04;;;;;;;23.25;4.38;;;;;;;23.92;40.38;101664.03;4955812;29;20034;-69
2021/11/09 12:50:31;;;;;;;6.30;2.08;;;;;;;23.90;40.50;101672.81;4956039;29;20031;-68
2021/11/09 12:53:11;;;;;;;7.28;1.63;;;;;;;23.75;40.30;101662.66;4956130;29;20051;-76
2021/11/09 12:55:40;;;;;;;;;;;;;;;23.79;40.17;101653.13;4956809;29;20020;-68
2021/11/09 12:58:19;;;;;;;3.65;1.58;;;;;;;23.67;40.04;101645.03;4955978;29;19922;-68
2021/11/09 13:01:00;;;;;;;13.10;2.67;;;;;;;23.49;40.59;101644.78;4955948;29;20078;-69
2021/11/09 13:03:36;;;;;;;4.65;1.55;;;;;;;23.11;40.97;101642.28;4956252;29;20047;-68
2021/11/09 13:06:37;;;;;;;5.00;1.40;;;;;;;22.81;40.98;101647.78;4955891;29;20466;-68
2021/11/09 13:09:06;;;;;;;9.95;2.72;;;;;;;22.92;40.97;101646.78;4952851;29;20062;-70
2021/11/09 13:11:39;;;;;;;6.10;1.20;;;;;;;22.63;41.37;101639.94;4955876;29;20397;-70
2021/11/09 13:14:09;;;;;;;6.03;1.88;;;;;;;22.90;40.83;101645.56;4955782;29;20035;-70
2021/11/09 13:16:43;;;;;;;3.65;1.08;;;;;;;23.08;40.78;101632.69;4955728;29;20035;-69
2021/11/09 13:19:09;;;;;;;8.20;1.45;;;;;;;22.98;40.84;101633.34;4955721;29;20030;-69
2021/11/09 13:21:37;;;;;;;5.30;1.25;;;;;;;22.75;41.60;101636.16;4955546;29;20052;-69
2021/11/09 13:24:05;;;;;;;11.88;2.42;;;;;;;22.88;40.91;101632.00;4954712;28;20467;-69
2021/11/09 13:26:31;;;;;;;5.35;1.35;;;;;;;22.93;40.05;101637.25;4955617;29;20062;-70
2021/11/09 13:29:06;;;;;;;4.82;1.67;;;;;;;22.63;39.56;101630.78;4955499;29;20491;-69
2021/11/09 13:31:32;;;;;;;6.07;1.75;;;;;;;22.79;39.00;101630.63;4955492;29;20046;-69
2021/11/09 13:34:00;;;;;;;9.73;1.50;;;;;;;22.80;39.07;101627.47;4955241;29;20031;-69
2021/11/09 13:36:25;;;;;;;4.93;1.35;;;;;;;23.01;38.76;101632.59;4955106;28;20035;-69
2021/11/09 13:38:51;;;;;;;7.78;1.65;;;;;;;23.03;38.37;101635.00;4964934;28;20081;-76
2021/11/09 13:41:29;;;;;;;11.82;2.45;;;;;;;23.03;38.75;101644.16;4974754;28;20027;-73
2021/11/09 13:43:58;;;;;;;4.38;1.30;;;;;;;23.11;38.99;101637.50;4974589;28;20498;-69
2021/11/09 13:46:32;;;;;;;8.53;2.13;;;;;;;23.10;38.89;101640.66;4974395;28;20058;-72